sensor_id;sensor_type;location;lat;lon;timestamp;temperature;humidity
20416;DHT22;10367;52.202;5.996;2023-05-10T00:01:22;12.70;99.90
20416;DHT22;10367;52.202;5.996;2023-05-10T00:03:53;12.70;99.90
20416;DHT22;10367;52.202;5.996;2023-05-10T00:06:22;12.70;99.90
20416;DHT22;10367;52.202;5.996;2023-05-10T00:08:51;12.70;99.90
20416;DHT22;10367;52.202;5.996;2023-05-10T00:11:24;12.70;99.90
20416;DHT22;10367;52.202;5.996;2023-05-10T00:13:53;12.60;99.90
20416;DHT22;10367;52.202;5.996;2023-05-10T00:16:23;12.70;99.90
20416;DHT22;10367;52.202;5.996;2023-05-10T00:18:54;12.70;99.90
20416;DHT22;10367;52.202;5.996;2023-05-10T00:21:23;12.60;99.90
20416;DHT22;10367;52.202;5.996;2023-05-10T00:23:58;12.60;99.90
20416;DHT22;10367;52.202;5.996;2023-05-10T00:26:28;12.70;99.90
20416;DHT22;10367;52.202;5.996;2023-05-10T00:28:56;12.60;99.90
20416;DHT22;10367;52.202;5.996;2023-05-10T00:31:25;12.60;99.90
20416;DHT22;10367;52.202;5.996;2023-05-10T00:33:55;12.60;99.90
20416;DHT22;10367;52.202;5.996;2023-05-10T00:36:28;12.60;99.90
20416;DHT22;10367;52.202;5.996;2023-05-10T00:38:56;12.60;99.90
20416;DHT22;10367;52.202;5.996;2023-05-10T00:41:25;12.60;99.90
20416;DHT22;10367;52.202;5.996;2023-05-10T00:43:55;12.60;99.90
20416;DHT22;10367;52.202;5.996;2023-05-10T00:46:24;12.70;99.90
20416;DHT22;10367;52.202;5.996;2023-05-10T00:48:54;12.60;99.90
20416;DHT22;10367;52.202;5.996;2023-05-10T00:51:23;12.70;99.90
20416;DHT22;10367;52.202;5.996;2023-05-10T00:53:51;12.70;99.90
20416;DHT22;10367;52.202;5.996;2023-05-10T00:56:20;12.70;99.90
20416;DHT22;10367;52.202;5.996;2023-05-10T00:58:50;12.70;99.90
20416;DHT22;10367;52.202;5.996;2023-05-10T01:01:21;12.70;99.90
20416;DHT22;10367;52.202;5.996;2023-05-10T01:03:50;12.70;99.90
20416;DHT22;10367;52.202;5.996;2023-05-10T01:06:19;12.70;99.90
20416;DHT22;10367;52.202;5.996;2023-05-10T01:08:48;12.70;99.90
20416;DHT22;10367;52.202;5.996;2023-05-10T01:11:17;12.70;99.90
20416;DHT22;10367;52.202;5.996;2023-05-10T01:13:51;12.70;99.90
20416;DHT22;10367;52.202;5.996;2023-05-10T01:16:26;12.70;99.90
20416;DHT22;10367;52.202;5.996;2023-05-10T01:18:56;12.70;99.90
20416;DHT22;10367;52.202;5.996;2023-05-10T01:21:33;12.70;99.90
20416;DHT22;10367;52.202;5.996;2023-05-10T01:24:42;12.70;99.90
20416;DHT22;10367;52.202;5.996;2023-05-10T01:27:53;12.70;99.90
20416;DHT22;10367;52.202;5.996;2023-05-10T01:33:27;12.70;99.90
20416;DHT22;10367;52.202;5.996;2023-05-10T01:36:03;12.70;99.90
20416;DHT22;10367;52.202;5.996;2023-05-10T01:38:42;12.70;99.90
20416;DHT22;10367;52.202;5.996;2023-05-10T01:41:18;12.70;99.90
20416;DHT22;10367;52.202;5.996;2023-05-10T01:44:09;12.70;99.90
20416;DHT22;10367;52.202;5.996;2023-05-10T01:46:39;12.80;99.90
20416;DHT22;10367;52.202;5.996;2023-05-10T01:49:13;12.80;99.90
20416;DHT22;10367;52.202;5.996;2023-05-10T01:51:48;12.80;99.90
20416;DHT22;10367;52.202;5.996;2023-05-10T01:54:22;12.80;99.90
20416;DHT22;10367;52.202;5.996;2023-05-10T01:56:59;12.80;99.90
20416;DHT22;10367;52.202;5.996;2023-05-10T01:59:33;12.80;99.90
20416;DHT22;10367;52.202;5.996;2023-05-10T02:02:05;12.90;99.90
20416;DHT22;10367;52.202;5.996;2023-05-10T02:04:37;12.90;99.90
20416;DHT22;10367;52.202;5.996;2023-05-10T02:07:12;12.90;99.90
20416;DHT22;10367;52.202;5.996;2023-05-10T02:09:46;12.90;99.90
20416;DHT22;10367;52.202;5.996;2023-05-10T02:12:16;12.90;99.90
20416;DHT22;10367;52.202;5.996;2023-05-10T02:14:47;12.90;99.90
20416;DHT22;10367;52.202;5.996;2023-05-10T02:17:16;13.00;99.90
20416;DHT22;10367;52.202;5.996;2023-05-10T02:19:48;13.00;99.90
20416;DHT22;10367;52.202;5.996;2023-05-10T02:22:18;13.00;99.90
20416;DHT22;10367;52.202;5.996;2023-05-10T02:24:49;13.00;99.90
20416;DHT22;10367;52.202;5.996;2023-05-10T02:27:19;13.00;99.90
20416;DHT22;10367;52.202;5.996;2023-05-10T02:29:50;13.00;99.90
20416;DHT22;10367;52.202;5.996;2023-05-10T02:32:24;13.00;99.90
20416;DHT22;10367;52.202;5.996;2023-05-10T02:34:55;13.00;99.90
20416;DHT22;10367;52.202;5.996;2023-05-10T02:37:25;13.00;99.90
20416;DHT22;10367;52.202;5.996;2023-05-10T02:39:56;13.00;99.90
20416;DHT22;10367;52.202;5.996;2023-05-10T02:42:27;13.00;99.90
20416;DHT22;10367;52.202;5.996;2023-05-10T02:44:59;13.00;99.90
20416;DHT22;10367;52.202;5.996;2023-05-10T02:47:29;13.00;99.90
20416;DHT22;10367;52.202;5.996;2023-05-10T02:50:00;13.00;99.90
20416;DHT22;10367;52.202;5.996;2023-05-10T02:52:30;13.00;99.90
20416;DHT22;10367;52.202;5.996;2023-05-10T02:55:06;13.00;99.90
20416;DHT22;10367;52.202;5.996;2023-05-10T02:57:41;13.00;99.90
20416;DHT22;10367;52.202;5.996;2023-05-10T03:00:11;13.00;99.90
20416;DHT22;10367;52.202;5.996;2023-05-10T03:02:41;13.00;99.90
20416;DHT22;10367;52.202;5.996;2023-05-10T03:05:12;13.00;99.90
20416;DHT22;10367;52.202;5.996;2023-05-10T03:07:43;13.00;99.90
20416;DHT22;10367;52.202;5.996;2023-05-10T03:10:12;13.00;99.90
20416;DHT22;10367;52.202;5.996;2023-05-10T03:12:50;13.00;99.90
20416;DHT22;10367;52.202;5.996;2023-05-10T03:15:28;13.00;99.90
20416;DHT22;10367;52.202;5.996;2023-05-10T03:18:04;13.00;99.90
20416;DHT22;10367;52.202;5.996;2023-05-10T03:20:38;13.00;99.90
20416;DHT22;10367;52.202;5.996;2023-05-10T03:23:13;13.00;99.90
20416;DHT22;10367;52.202;5.996;2023-05-10T03:25:48;13.00;99.90
20416;DHT22;10367;52.202;5.996;2023-05-10T03:28:18;12.90;99.90
20416;DHT22;10367;52.202;5.996;2023-05-10T03:30:49;13.00;99.90
20416;DHT22;10367;52.202;5.996;2023-05-10T03:33:19;13.00;99.90
20416;DHT22;10367;52.202;5.996;2023-05-10T03:35:49;13.00;99.90
20416;DHT22;10367;52.202;5.996;2023-05-10T03:38:21;13.00;99.90
20416;DHT22;10367;52.202;5.996;2023-05-10T03:40:51;13.00;99.90
20416;DHT22;10367;52.202;5.996;2023-05-10T03:43:20;13.00;99.90
20416;DHT22;10367;52.202;5.996;2023-05-10T03:45:49;13.00;99.90
20416;DHT22;10367;52.202;5.996;2023-05-10T03:48:18;13.00;99.90
20416;DHT22;10367;52.202;5.996;2023-05-10T03:50:46;13.00;99.90
20416;DHT22;10367;52.202;5.996;2023-05-10T03:53:17;13.00;99.90
20416;DHT22;10367;52.202;5.996;2023-05-10T03:55:46;13.00;99.90
20416;DHT22;10367;52.202;5.996;2023-05-10T03:58:15;13.00;99.90
20416;DHT22;10367;52.202;5.996;2023-05-10T04:00:44;13.00;99.90
20416;DHT22;10367;52.202;5.996;2023-05-10T04:03:13;13.00;99.90
20416;DHT22;10367;52.202;5.996;2023-05-10T04:05:42;13.00;99.90
20416;DHT22;10367;52.202;5.996;2023-05-10T04:08:11;13.00;99.90
20416;DHT22;10367;52.202;5.996;2023-05-10T04:10:41;12.90;99.90
20416;DHT22;10367;52.202;5.996;2023-05-10T04:13:10;13.00;99.90
20416;DHT22;10367;52.202;5.996;2023-05-10T04:15:38;13.00;99.90
20416;DHT22;10367;52.202;5.996;2023-05-10T04:18:07;12.90;99.90
20416;DHT22;10367;52.202;5.996;2023-05-10T04:20:36;12.90;99.90
20416;DHT22;10367;52.202;5.996;2023-05-10T04:23:04;12.90;99.90
20416;DHT22;10367;52.202;5.996;2023-05-10T04:25:34;12.90;99.90
20416;DHT22;10367;52.202;5.996;2023-05-10T04:28:05;13.00;99.90
20416;DHT22;10367;52.202;5.996;2023-05-10T04:30:33;13.00;99.90
20416;DHT22;10367;52.202;5.996;2023-05-10T04:33:02;13.00;99.90
20416;DHT22;10367;52.202;5.996;2023-05-10T04:35:31;13.00;99.90
20416;DHT22;10367;52.202;5.996;2023-05-10T04:38:01;12.90;99.90
20416;DHT22;10367;52.202;5.996;2023-05-10T04:40:30;12.90;99.90
20416;DHT22;10367;52.202;5.996;2023-05-10T04:42:58;12.90;99.90
20416;DHT22;10367;52.202;5.996;2023-05-10T04:45:28;12.90;99.90
20416;DHT22;10367;52.202;5.996;2023-05-10T04:47:57;12.90;99.90
20416;DHT22;10367;52.202;5.996;2023-05-10T04:50:26;12.90;99.90
20416;DHT22;10367;52.202;5.996;2023-05-10T04:52:55;12.90;99.90
20416;DHT22;10367;52.202;5.996;2023-05-10T04:55:24;12.80;99.90
20416;DHT22;10367;52.202;5.996;2023-05-10T04:57:53;12.80;99.90
20416;DHT22;10367;52.202;5.996;2023-05-10T05:00:24;12.80;99.90
20416;DHT22;10367;52.202;5.996;2023-05-10T05:02:54;12.80;99.90
20416;DHT22;10367;52.202;5.996;2023-05-10T05:05:23;12.80;99.90
20416;DHT22;10367;52.202;5.996;2023-05-10T05:07:52;12.80;99.90
20416;DHT22;10367;52.202;5.996;2023-05-10T05:10:23;12.80;99.90
20416;DHT22;10367;52.202;5.996;2023-05-10T05:12:52;12.80;99.90
20416;DHT22;10367;52.202;5.996;2023-05-10T05:15:21;12.80;99.90
20416;DHT22;10367;52.202;5.996;2023-05-10T05:17:56;12.70;99.90
20416;DHT22;10367;52.202;5.996;2023-05-10T05:20:25;12.80;99.90
20416;DHT22;10367;52.202;5.996;2023-05-10T05:22:54;12.70;99.90
20416;DHT22;10367;52.202;5.996;2023-05-10T05:25:23;12.70;99.90
20416;DHT22;10367;52.202;5.996;2023-05-10T05:27:51;12.80;99.90
20416;DHT22;10367;52.202;5.996;2023-05-10T05:30:20;12.80;99.90
20416;DHT22;10367;52.202;5.996;2023-05-10T05:32:49;12.80;99.90
20416;DHT22;10367;52.202;5.996;2023-05-10T05:35:19;12.80;99.90
20416;DHT22;10367;52.202;5.996;2023-05-10T05:37:48;12.80;99.90
20416;DHT22;10367;52.202;5.996;2023-05-10T05:40:16;12.90;99.90
20416;DHT22;10367;52.202;5.996;2023-05-10T05:42:45;13.00;99.90
20416;DHT22;10367;52.202;5.996;2023-05-10T05:45:14;13.00;99.90
20416;DHT22;10367;52.202;5.996;2023-05-10T05:47:43;13.00;99.90
20416;DHT22;10367;52.202;5.996;2023-05-10T05:50:12;13.00;99.90
20416;DHT22;10367;52.202;5.996;2023-05-10T05:52:42;13.00;99.90
20416;DHT22;10367;52.202;5.996;2023-05-10T05:55:11;13.10;99.90
20416;DHT22;10367;52.202;5.996;2023-05-10T05:57:40;13.10;99.90
20416;DHT22;10367;52.202;5.996;2023-05-10T06:00:09;13.20;99.90
20416;DHT22;10367;52.202;5.996;2023-05-10T06:02:38;13.20;99.90
20416;DHT22;10367;52.202;5.996;2023-05-10T06:05:07;13.20;99.90
20416;DHT22;10367;52.202;5.996;2023-05-10T06:07:37;13.20;99.90
20416;DHT22;10367;52.202;5.996;2023-05-10T06:10:07;13.30;99.90
20416;DHT22;10367;52.202;5.996;2023-05-10T06:12:36;13.30;99.90
20416;DHT22;10367;52.202;5.996;2023-05-10T06:15:06;13.30;99.90
20416;DHT22;10367;52.202;5.996;2023-05-10T06:17:34;13.30;99.90
20416;DHT22;10367;52.202;5.996;2023-05-10T06:20:04;13.20;99.90
20416;DHT22;10367;52.202;5.996;2023-05-10T06:22:33;13.20;99.90
20416;DHT22;10367;52.202;5.996;2023-05-10T06:25:02;13.20;99.90
20416;DHT22;10367;52.202;5.996;2023-05-10T06:27:32;13.20;99.90
20416;DHT22;10367;52.202;5.996;2023-05-10T06:30:00;13.20;99.90
20416;DHT22;10367;52.202;5.996;2023-05-10T06:32:41;13.20;99.90
20416;DHT22;10367;52.202;5.996;2023-05-10T06:35:11;13.30;99.90
20416;DHT22;10367;52.202;5.996;2023-05-10T06:37:39;13.30;99.90
20416;DHT22;10367;52.202;5.996;2023-05-10T06:40:09;13.40;99.90
20416;DHT22;10367;52.202;5.996;2023-05-10T06:42:39;13.50;99.90
20416;DHT22;10367;52.202;5.996;2023-05-10T06:45:09;13.60;99.90
20416;DHT22;10367;52.202;5.996;2023-05-10T06:47:37;13.70;99.90
20416;DHT22;10367;52.202;5.996;2023-05-10T06:50:07;13.80;99.90
20416;DHT22;10367;52.202;5.996;2023-05-10T06:52:36;13.80;99.90
20416;DHT22;10367;52.202;5.996;2023-05-10T06:55:06;13.80;99.90
20416;DHT22;10367;52.202;5.996;2023-05-10T06:57:35;13.70;99.90
20416;DHT22;10367;52.202;5.996;2023-05-10T07:00:07;13.70;99.90
20416;DHT22;10367;52.202;5.996;2023-05-10T07:02:37;13.60;99.90
20416;DHT22;10367;52.202;5.996;2023-05-10T07:05:06;13.40;99.90
20416;DHT22;10367;52.202;5.996;2023-05-10T07:07:35;13.30;99.90
20416;DHT22;10367;52.202;5.996;2023-05-10T07:10:04;13.20;99.90
20416;DHT22;10367;52.202;5.996;2023-05-10T07:12:33;13.20;99.90
20416;DHT22;10367;52.202;5.996;2023-05-10T07:15:02;13.20;99.90
20416;DHT22;10367;52.202;5.996;2023-05-10T07:17:32;13.20;99.90
20416;DHT22;10367;52.202;5.996;2023-05-10T07:20:02;13.20;99.90
20416;DHT22;10367;52.202;5.996;2023-05-10T07:22:30;13.20;99.90
20416;DHT22;10367;52.202;5.996;2023-05-10T07:24:59;13.20;99.90
20416;DHT22;10367;52.202;5.996;2023-05-10T07:27:28;13.20;99.90
20416;DHT22;10367;52.202;5.996;2023-05-10T07:29:56;13.10;99.90
20416;DHT22;10367;52.202;5.996;2023-05-10T07:32:25;13.20;99.90
20416;DHT22;10367;52.202;5.996;2023-05-10T07:34:56;13.10;99.90
20416;DHT22;10367;52.202;5.996;2023-05-10T07:37:24;13.10;99.90
20416;DHT22;10367;52.202;5.996;2023-05-10T07:39:53;13.10;99.90
20416;DHT22;10367;52.202;5.996;2023-05-10T07:42:23;13.30;99.90
20416;DHT22;10367;52.202;5.996;2023-05-10T07:44:51;13.50;99.90
20416;DHT22;10367;52.202;5.996;2023-05-10T07:47:20;13.50;99.90
20416;DHT22;10367;52.202;5.996;2023-05-10T07:49:49;13.70;99.90
20416;DHT22;10367;52.202;5.996;2023-05-10T07:52:19;13.90;99.90
20416;DHT22;10367;52.202;5.996;2023-05-10T07:54:49;14.20;99.90
20416;DHT22;10367;52.202;5.996;2023-05-10T07:57:18;14.60;99.90
20416;DHT22;10367;52.202;5.996;2023-05-10T07:59:46;14.70;99.90
20416;DHT22;10367;52.202;5.996;2023-05-10T08:02:15;14.80;99.90
20416;DHT22;10367;52.202;5.996;2023-05-10T08:04:43;15.00;99.90
20416;DHT22;10367;52.202;5.996;2023-05-10T08:07:12;15.10;99.90
20416;DHT22;10367;52.202;5.996;2023-05-10T08:09:43;15.40;99.90
20416;DHT22;10367;52.202;5.996;2023-05-10T08:12:11;15.20;99.90
20416;DHT22;10367;52.202;5.996;2023-05-10T08:14:40;15.40;99.90
20416;DHT22;10367;52.202;5.996;2023-05-10T08:17:08;15.50;99.90
20416;DHT22;10367;52.202;5.996;2023-05-10T08:19:37;15.40;99.90
20416;DHT22;10367;52.202;5.996;2023-05-10T08:22:06;15.20;99.90
20416;DHT22;10367;52.202;5.996;2023-05-10T08:24:34;15.00;99.90
20416;DHT22;10367;52.202;5.996;2023-05-10T08:27:08;14.90;99.90
20416;DHT22;10367;52.202;5.996;2023-05-10T08:29:37;14.80;99.90
20416;DHT22;10367;52.202;5.996;2023-05-10T08:32:16;14.80;99.90
20416;DHT22;10367;52.202;5.996;2023-05-10T08:34:45;14.90;99.90
20416;DHT22;10367;52.202;5.996;2023-05-10T08:37:13;15.00;99.90
20416;DHT22;10367;52.202;5.996;2023-05-10T08:39:42;14.90;99.90
20416;DHT22;10367;52.202;5.996;2023-05-10T08:42:19;14.80;99.90
20416;DHT22;10367;52.202;5.996;2023-05-10T08:44:48;14.80;99.90
20416;DHT22;10367;52.202;5.996;2023-05-10T08:47:18;14.80;99.90
20416;DHT22;10367;52.202;5.996;2023-05-10T08:49:48;14.70;99.90
20416;DHT22;10367;52.202;5.996;2023-05-10T08:52:18;14.60;99.90
20416;DHT22;10367;52.202;5.996;2023-05-10T08:54:47;14.70;99.90
20416;DHT22;10367;52.202;5.996;2023-05-10T08:57:19;14.60;99.90
20416;DHT22;10367;52.202;5.996;2023-05-10T08:59:48;14.50;99.90
20416;DHT22;10367;52.202;5.996;2023-05-10T09:02:18;14.40;99.90
20416;DHT22;10367;52.202;5.996;2023-05-10T09:04:48;14.30;99.90
20416;DHT22;10367;52.202;5.996;2023-05-10T09:07:17;14.30;99.90
20416;DHT22;10367;52.202;5.996;2023-05-10T09:09:47;14.40;99.90
20416;DHT22;10367;52.202;5.996;2023-05-10T09:12:18;14.40;99.90
20416;DHT22;10367;52.202;5.996;2023-05-10T09:14:47;14.10;99.90
20416;DHT22;10367;52.202;5.996;2023-05-10T09:17:16;14.10;99.90
20416;DHT22;10367;52.202;5.996;2023-05-10T09:19:45;14.20;99.90
20416;DHT22;10367;52.202;5.996;2023-05-10T09:22:14;14.20;99.90
20416;DHT22;10367;52.202;5.996;2023-05-10T09:24:43;14.10;99.90
20416;DHT22;10367;52.202;5.996;2023-05-10T09:27:12;14.00;99.90
20416;DHT22;10367;52.202;5.996;2023-05-10T09:29:43;14.00;99.90
20416;DHT22;10367;52.202;5.996;2023-05-10T09:32:12;14.00;99.90
20416;DHT22;10367;52.202;5.996;2023-05-10T09:34:42;13.90;99.90
20416;DHT22;10367;52.202;5.996;2023-05-10T09:37:10;13.90;99.90
20416;DHT22;10367;52.202;5.996;2023-05-10T09:39:39;13.90;99.90
20416;DHT22;10367;52.202;5.996;2023-05-10T09:42:09;13.90;99.90
20416;DHT22;10367;52.202;5.996;2023-05-10T09:44:38;14.30;99.90
20416;DHT22;10367;52.202;5.996;2023-05-10T09:47:09;14.50;99.90
20416;DHT22;10367;52.202;5.996;2023-05-10T09:49:38;14.90;99.90
20416;DHT22;10367;52.202;5.996;2023-05-10T09:52:07;15.20;99.90
20416;DHT22;10367;52.202;5.996;2023-05-10T09:54:36;15.10;99.90
20416;DHT22;10367;52.202;5.996;2023-05-10T09:57:04;15.30;99.90
20416;DHT22;10367;52.202;5.996;2023-05-10T09:59:33;15.20;99.90
20416;DHT22;10367;52.202;5.996;2023-05-10T10:02:03;15.00;99.90
20416;DHT22;10367;52.202;5.996;2023-05-10T10:04:39;15.20;99.90
20416;DHT22;10367;52.202;5.996;2023-05-10T10:07:08;15.30;99.90
20416;DHT22;10367;52.202;5.996;2023-05-10T10:09:37;15.40;99.90
20416;DHT22;10367;52.202;5.996;2023-05-10T10:12:06;15.50;99.90
20416;DHT22;10367;52.202;5.996;2023-05-10T10:14:36;15.60;99.90
20416;DHT22;10367;52.202;5.996;2023-05-10T10:17:04;15.60;99.90
20416;DHT22;10367;52.202;5.996;2023-05-10T10:19:36;15.70;99.90
20416;DHT22;10367;52.202;5.996;2023-05-10T10:22:05;15.70;99.90
20416;DHT22;10367;52.202;5.996;2023-05-10T10:24:34;15.70;99.90
20416;DHT22;10367;52.202;5.996;2023-05-10T10:27:09;15.70;99.90
20416;DHT22;10367;52.202;5.996;2023-05-10T10:29:47;15.90;99.90
20416;DHT22;10367;52.202;5.996;2023-05-10T10:32:24;16.10;99.90
20416;DHT22;10367;52.202;5.996;2023-05-10T10:34:55;16.00;99.90
20416;DHT22;10367;52.202;5.996;2023-05-10T10:37:42;16.00;99.90
20416;DHT22;10367;52.202;5.996;2023-05-10T10:40:24;16.10;99.90
20416;DHT22;10367;52.202;5.996;2023-05-10T10:42:54;16.30;99.90
20416;DHT22;10367;52.202;5.996;2023-05-10T10:45:24;16.20;99.90
20416;DHT22;10367;52.202;5.996;2023-05-10T10:48:21;16.00;99.90
20416;DHT22;10367;52.202;5.996;2023-05-10T10:50:57;16.10;99.90
20416;DHT22;10367;52.202;5.996;2023-05-10T10:53:26;16.00;99.90
20416;DHT22;10367;52.202;5.996;2023-05-10T10:56:06;15.90;99.90
20416;DHT22;10367;52.202;5.996;2023-05-10T10:58:37;15.80;99.90
20416;DHT22;10367;52.202;5.996;2023-05-10T11:01:11;15.90;99.90
20416;DHT22;10367;52.202;5.996;2023-05-10T11:03:40;15.80;99.90
20416;DHT22;10367;52.202;5.996;2023-05-10T11:06:11;15.90;99.90
20416;DHT22;10367;52.202;5.996;2023-05-10T11:08:43;15.80;99.90
20416;DHT22;10367;52.202;5.996;2023-05-10T11:11:14;16.10;99.90
20416;DHT22;10367;52.202;5.996;2023-05-10T11:13:45;16.50;99.90
20416;DHT22;10367;52.202;5.996;2023-05-10T11:16:18;16.70;99.90
20416;DHT22;10367;52.202;5.996;2023-05-10T11:18:59;16.60;99.90
20416;DHT22;10367;52.202;5.996;2023-05-10T11:21:31;16.80;99.90
20416;DHT22;10367;52.202;5.996;2023-05-10T11:24:02;16.80;99.90
20416;DHT22;10367;52.202;5.996;2023-05-10T11:26:40;16.70;99.90
20416;DHT22;10367;52.202;5.996;2023-05-10T11:29:12;16.70;99.90
20416;DHT22;10367;52.202;5.996;2023-05-10T11:31:44;16.90;99.90
20416;DHT22;10367;52.202;5.996;2023-05-10T11:34:23;17.20;99.90
20416;DHT22;10367;52.202;5.996;2023-05-10T11:36:57;17.60;99.90
20416;DHT22;10367;52.202;5.996;2023-05-10T11:39:26;17.80;99.90
20416;DHT22;10367;52.202;5.996;2023-05-10T11:41:56;18.10;99.90
20416;DHT22;10367;52.202;5.996;2023-05-10T11:44:29;17.90;99.90
20416;DHT22;10367;52.202;5.996;2023-05-10T11:46:59;17.90;99.90
20416;DHT22;10367;52.202;5.996;2023-05-10T11:49:28;18.10;99.90
20416;DHT22;10367;52.202;5.996;2023-05-10T11:52:05;18.10;99.90
20416;DHT22;10367;52.202;5.996;2023-05-10T11:54:34;18.20;99.90
20416;DHT22;10367;52.202;5.996;2023-05-10T11:57:03;18.30;99.90
20416;DHT22;10367;52.202;5.996;2023-05-10T11:59:32;18.30;99.90
20416;DHT22;10367;52.202;5.996;2023-05-10T12:02:01;18.60;99.90
20416;DHT22;10367;52.202;5.996;2023-05-10T12:04:31;18.70;99.90
20416;DHT22;10367;52.202;5.996;2023-05-10T12:07:00;18.80;99.90
20416;DHT22;10367;52.202;5.996;2023-05-10T12:09:30;18.80;99.90
20416;DHT22;10367;52.202;5.996;2023-05-10T12:12:10;18.80;99.90
20416;DHT22;10367;52.202;5.996;2023-05-10T12:14:38;18.80;99.90
20416;DHT22;10367;52.202;5.996;2023-05-10T12:17:11;18.70;99.90
20416;DHT22;10367;52.202;5.996;2023-05-10T12:19:41;18.70;99.90
20416;DHT22;10367;52.202;5.996;2023-05-10T12:22:11;18.60;99.90
20416;DHT22;10367;52.202;5.996;2023-05-10T12:24:41;18.30;99.90
20416;DHT22;10367;52.202;5.996;2023-05-10T12:27:10;17.70;99.90
20416;DHT22;10367;52.202;5.996;2023-05-10T12:29:41;17.70;99.90
20416;DHT22;10367;52.202;5.996;2023-05-10T12:32:11;17.80;99.90
20416;DHT22;10367;52.202;5.996;2023-05-10T12:34:40;17.80;99.90
20416;DHT22;10367;52.202;5.996;2023-05-10T12:37:09;17.80;99.90
20416;DHT22;10367;52.202;5.996;2023-05-10T12:39:41;17.70;99.90
20416;DHT22;10367;52.202;5.996;2023-05-10T12:42:10;17.60;99.90
20416;DHT22;10367;52.202;5.996;2023-05-10T12:44:39;17.70;99.90
20416;DHT22;10367;52.202;5.996;2023-05-10T12:47:07;17.80;99.90
20416;DHT22;10367;52.202;5.996;2023-05-10T12:49:36;17.80;99.90
20416;DHT22;10367;52.202;5.996;2023-05-10T12:52:05;17.80;99.90
20416;DHT22;10367;52.202;5.996;2023-05-10T12:54:34;17.90;99.90
20416;DHT22;10367;52.202;5.996;2023-05-10T12:57:04;17.90;99.90
20416;DHT22;10367;52.202;5.996;2023-05-10T12:59:34;17.70;99.90
20416;DHT22;10367;52.202;5.996;2023-05-10T13:02:04;17.70;99.90
20416;DHT22;10367;52.202;5.996;2023-05-10T13:04:33;17.80;99.90
20416;DHT22;10367;52.202;5.996;2023-05-10T13:07:02;18.00;99.90
20416;DHT22;10367;52.202;5.996;2023-05-10T13:09:30;18.10;99.90
20416;DHT22;10367;52.202;5.996;2023-05-10T13:11:59;17.70;99.90
20416;DHT22;10367;52.202;5.996;2023-05-10T13:14:29;17.40;99.90
20416;DHT22;10367;52.202;5.996;2023-05-10T13:16:58;17.40;99.90
20416;DHT22;10367;52.202;5.996;2023-05-10T13:19:27;17.50;99.90
20416;DHT22;10367;52.202;5.996;2023-05-10T13:21:55;17.70;99.90
20416;DHT22;10367;52.202;5.996;2023-05-10T13:24:24;18.00;99.90
20416;DHT22;10367;52.202;5.996;2023-05-10T13:26:53;17.90;99.90
20416;DHT22;10367;52.202;5.996;2023-05-10T13:29:22;17.90;99.90
20416;DHT22;10367;52.202;5.996;2023-05-10T13:31:52;18.00;99.90
20416;DHT22;10367;52.202;5.996;2023-05-10T13:34:21;18.20;99.90
20416;DHT22;10367;52.202;5.996;2023-05-10T13:36:50;18.40;99.90
20416;DHT22;10367;52.202;5.996;2023-05-10T13:39:20;18.10;99.90
20416;DHT22;10367;52.202;5.996;2023-05-10T13:41:48;18.00;99.90
20416;DHT22;10367;52.202;5.996;2023-05-10T13:44:20;18.00;99.90
20416;DHT22;10367;52.202;5.996;2023-05-10T13:46:49;17.80;99.90
20416;DHT22;10367;52.202;5.996;2023-05-10T13:49:19;18.00;99.90
20416;DHT22;10367;52.202;5.996;2023-05-10T13:51:48;18.20;99.90
20416;DHT22;10367;52.202;5.996;2023-05-10T13:54:18;18.60;99.90
20416;DHT22;10367;52.202;5.996;2023-05-10T13:56:47;18.70;99.90
20416;DHT22;10367;52.202;5.996;2023-05-10T13:59:16;18.80;99.90
20416;DHT22;10367;52.202;5.996;2023-05-10T14:01:44;18.80;99.90
20416;DHT22;10367;52.202;5.996;2023-05-10T14:04:13;18.60;99.90
20416;DHT22;10367;52.202;5.996;2023-05-10T14:06:43;18.50;99.90
20416;DHT22;10367;52.202;5.996;2023-05-10T14:09:12;18.70;99.90
20416;DHT22;10367;52.202;5.996;2023-05-10T14:11:41;18.90;99.90
20416;DHT22;10367;52.202;5.996;2023-05-10T14:14:10;19.00;99.90
20416;DHT22;10367;52.202;5.996;2023-05-10T14:16:42;19.10;99.90
20416;DHT22;10367;52.202;5.996;2023-05-10T14:19:11;19.30;99.90
20416;DHT22;10367;52.202;5.996;2023-05-10T14:21:40;19.20;99.90
20416;DHT22;10367;52.202;5.996;2023-05-10T14:24:10;19.00;99.90
20416;DHT22;10367;52.202;5.996;2023-05-10T14:26:39;19.20;99.90
20416;DHT22;10367;52.202;5.996;2023-05-10T14:29:07;19.10;99.90
20416;DHT22;10367;52.202;5.996;2023-05-10T14:31:40;19.30;99.90
20416;DHT22;10367;52.202;5.996;2023-05-10T14:34:09;19.10;99.90
20416;DHT22;10367;52.202;5.996;2023-05-10T14:36:37;19.20;99.90
20416;DHT22;10367;52.202;5.996;2023-05-10T14:39:07;19.00;99.90
20416;DHT22;10367;52.202;5.996;2023-05-10T14:41:38;19.10;99.90
20416;DHT22;10367;52.202;5.996;2023-05-10T14:44:10;20.00;99.90
20416;DHT22;10367;52.202;5.996;2023-05-10T14:46:39;20.30;99.90
20416;DHT22;10367;52.202;5.996;2023-05-10T14:49:08;20.40;99.90
20416;DHT22;10367;52.202;5.996;2023-05-10T14:51:38;20.40;99.90
20416;DHT22;10367;52.202;5.996;2023-05-10T14:54:07;20.20;99.90
20416;DHT22;10367;52.202;5.996;2023-05-10T14:56:39;20.00;99.90
20416;DHT22;10367;52.202;5.996;2023-05-10T14:59:08;20.00;99.90
20416;DHT22;10367;52.202;5.996;2023-05-10T15:01:38;19.80;99.90
20416;DHT22;10367;52.202;5.996;2023-05-10T15:04:11;19.30;99.90
20416;DHT22;10367;52.202;5.996;2023-05-10T15:06:41;18.80;99.90
20416;DHT22;10367;52.202;5.996;2023-05-10T15:09:10;18.60;99.90
20416;DHT22;10367;52.202;5.996;2023-05-10T15:11:40;18.40;99.90
20416;DHT22;10367;52.202;5.996;2023-05-10T15:14:08;18.10;99.90
20416;DHT22;10367;52.202;5.996;2023-05-10T15:16:37;17.80;99.90
20416;DHT22;10367;52.202;5.996;2023-05-10T15:19:09;17.50;99.90
20416;DHT22;10367;52.202;5.996;2023-05-10T15:21:37;17.40;99.90
20416;DHT22;10367;52.202;5.996;2023-05-10T15:24:09;17.10;99.90
20416;DHT22;10367;52.202;5.996;2023-05-10T15:26:39;16.80;99.90
20416;DHT22;10367;52.202;5.996;2023-05-10T15:29:09;16.50;99.90
20416;DHT22;10367;52.202;5.996;2023-05-10T15:31:57;16.20;99.90
20416;DHT22;10367;52.202;5.996;2023-05-10T15:34:26;15.90;99.90
20416;DHT22;10367;52.202;5.996;2023-05-10T15:36:59;15.80;99.90
20416;DHT22;10367;52.202;5.996;2023-05-10T15:39:28;15.70;99.90
20416;DHT22;10367;52.202;5.996;2023-05-10T15:41:58;15.50;99.90
20416;DHT22;10367;52.202;5.996;2023-05-10T15:44:28;15.20;99.90
20416;DHT22;10367;52.202;5.996;2023-05-10T15:46:57;15.10;99.90
20416;DHT22;10367;52.202;5.996;2023-05-10T15:49:26;14.90;99.90
20416;DHT22;10367;52.202;5.996;2023-05-10T15:51:55;14.60;99.90
20416;DHT22;10367;52.202;5.996;2023-05-10T15:54:23;14.40;99.90